sensor_id;sensor_type;location;lat;lon;timestamp;P1;P2;P0
55485;PMS5003;49383;-25.924;28.194;2022-08-18T00:02:02;63;52;
55485;PMS5003;49383;-25.924;28.194;2022-08-18T00:04:27;64;53;
55485;PMS5003;49383;-25.924;28.194;2022-08-18T00:06:52;66;58;
55485;PMS5003;49383;-25.924;28.194;2022-08-18T00:09:18;60;53;
55485;PMS5003;49383;-25.924;28.194;2022-08-18T00:11:44;56;54;
55485;PMS5003;49383;-25.924;28.194;2022-08-18T00:14:10;62;54;
55485;PMS5003;49383;-25.924;28.194;2022-08-18T00:16:35;66;60;
55485;PMS5003;49383;-25.924;28.194;2022-08-18T00:19:01;60;54;
55485;PMS5003;49383;-25.924;28.194;2022-08-18T00:21:26;58;53;
55485;PMS5003;49383;-25.924;28.194;2022-08-18T00:23:52;58;53;
55485;PMS5003;49383;-25.924;28.194;2022-08-18T00:26:17;55;52;
55485;PMS5003;49383;-25.924;28.194;2022-08-18T00:28:42;57;51;
55485;PMS5003;49383;-25.924;28.194;2022-08-18T00:31:07;57;52;
55485;PMS5003;49383;-25.924;28.194;2022-08-18T00:33:32;64;55;
55485;PMS5003;49383;-25.924;28.194;2022-08-18T00:35:57;55;52;
55485;PMS5003;49383;-25.924;28.194;2022-08-18T00:38:23;56;53;
55485;PMS5003;49383;-25.924;28.194;2022-08-18T00:40:49;50;47;
55485;PMS5003;49383;-25.924;28.194;2022-08-18T00:43:15;53;50;
55485;PMS5003;49383;-25.924;28.194;2022-08-18T00:45:41;62;53;
55485;PMS5003;49383;-25.924;28.194;2022-08-18T00:48:07;57;52;
55485;PMS5003;49383;-25.924;28.194;2022-08-18T00:50:32;58;54;
55485;PMS5003;49383;-25.924;28.194;2022-08-18T00:52:58;51;49;
55485;PMS5003;49383;-25.924;28.194;2022-08-18T00:55:22;57;52;
55485;PMS5003;49383;-25.924;28.194;2022-08-18T00:57:50;54;49;
55485;PMS5003;49383;-25.924;28.194;2022-08-18T01:00:14;59;51;
55485;PMS5003;49383;-25.924;28.194;2022-08-18T01:02:40;55;51;
55485;PMS5003;49383;-25.924;28.194;2022-08-18T01:05:05;51;48;
55485;PMS5003;49383;-25.924;28.194;2022-08-18T01:07:31;51;48;
55485;PMS5003;49383;-25.924;28.194;2022-08-18T01:09:56;47;45;
55485;PMS5003;49383;-25.924;28.194;2022-08-18T01:12:21;54;47;
55485;PMS5003;49383;-25.924;28.194;2022-08-18T01:14:46;47;46;
55485;PMS5003;49383;-25.924;28.194;2022-08-18T01:17:12;56;49;
55485;PMS5003;49383;-25.924;28.194;2022-08-18T01:19:37;49;44;
55485;PMS5003;49383;-25.924;28.194;2022-08-18T01:22:04;51;46;
55485;PMS5003;49383;-25.924;28.194;2022-08-18T01:24:29;50;46;
55485;PMS5003;49383;-25.924;28.194;2022-08-18T01:26:53;58;46;
55485;PMS5003;49383;-25.924;28.194;2022-08-18T01:29:18;48;43;
55485;PMS5003;49383;-25.924;28.194;2022-08-18T01:31:47;53;42;
55485;PMS5003;49383;-25.924;28.194;2022-08-18T01:34:09;47;42;
55485;PMS5003;49383;-25.924;28.194;2022-08-18T01:36:34;48;43;
55485;PMS5003;49383;-25.924;28.194;2022-08-18T01:38:59;50;43;
55485;PMS5003;49383;-25.924;28.194;2022-08-18T01:41:24;47;40;
55485;PMS5003;49383;-25.924;28.194;2022-08-18T01:43:50;42;40;
55485;PMS5003;49383;-25.924;28.194;2022-08-18T01:46:16;43;42;
55485;PMS5003;49383;-25.924;28.194;2022-08-18T01:48:40;46;43;
55485;PMS5003;49383;-25.924;28.194;2022-08-18T01:51:06;48;42;
55485;PMS5003;49383;-25.924;28.194;2022-08-18T01:53:31;45;41;
55485;PMS5003;49383;-25.924;28.194;2022-08-18T01:55:56;53;48;
55485;PMS5003;49383;-25.924;28.194;2022-08-18T01:58:22;46;42;
55485;PMS5003;49383;-25.924;28.194;2022-08-18T02:00:48;44;41;
55485;PMS5003;49383;-25.924;28.194;2022-08-18T02:03:14;43;40;
55485;PMS5003;49383;-25.924;28.194;2022-08-18T02:05:40;44;41;
55485;PMS5003;49383;-25.924;28.194;2022-08-18T02:08:05;43;38;
55485;PMS5003;49383;-25.924;28.194;2022-08-18T02:10:30;42;36;
55485;PMS5003;49383;-25.924;28.194;2022-08-18T02:12:55;42;36;
55485;PMS5003;49383;-25.924;28.194;2022-08-18T02:15:21;41;35;
55485;PMS5003;49383;-25.924;28.194;2022-08-18T02:17:46;45;42;
55485;PMS5003;49383;-25.924;28.194;2022-08-18T02:20:12;46;40;
55485;PMS5003;49383;-25.924;28.194;2022-08-18T02:22:36;47;42;
55485;PMS5003;49383;-25.924;28.194;2022-08-18T02:25:01;42;37;
55485;PMS5003;49383;-25.924;28.194;2022-08-18T02:27:27;39;38;
55485;PMS5003;49383;-25.924;28.194;2022-08-18T02:29:51;39;38;
55485;PMS5003;49383;-25.924;28.194;2022-08-18T02:32:17;43;37;
55485;PMS5003;49383;-25.924;28.194;2022-08-18T02:34:42;41;39;
55485;PMS5003;49383;-25.924;28.194;2022-08-18T02:37:08;46;40;
55485;PMS5003;49383;-25.924;28.194;2022-08-18T02:39:33;42;39;
55485;PMS5003;49383;-25.924;28.194;2022-08-18T02:41:58;38;36;
55485;PMS5003;49383;-25.924;28.194;2022-08-18T02:44:23;43;39;
55485;PMS5003;49383;-25.924;28.194;2022-08-18T02:46:51;41;36;
55485;PMS5003;49383;-25.924;28.194;2022-08-18T02:49:14;38;35;
55485;PMS5003;49383;-25.924;28.194;2022-08-18T02:51:39;36;34;
55485;PMS5003;49383;-25.924;28.194;2022-08-18T02:54:05;39;35;
55485;PMS5003;49383;-25.924;28.194;2022-08-18T02:56:30;38;36;
55485;PMS5003;49383;-25.924;28.194;2022-08-18T02:58:57;40;36;
55485;PMS5003;49383;-25.924;28.194;2022-08-18T03:01:21;37;35;
55485;PMS5003;49383;-25.924;28.194;2022-08-18T03:03:47;38;33;
55485;PMS5003;49383;-25.924;28.194;2022-08-18T03:06:12;37;36;
55485;PMS5003;49383;-25.924;28.194;2022-08-18T03:08:37;39;32;
55485;PMS5003;49383;-25.924;28.194;2022-08-18T03:11:03;33;33;
55485;PMS5003;49383;-25.924;28.194;2022-08-18T03:13:29;34;33;
55485;PMS5003;49383;-25.924;28.194;2022-08-18T03:15:54;33;32;
55485;PMS5003;49383;-25.924;28.194;2022-08-18T03:18:19;34;32;
55485;PMS5003;49383;-25.924;28.194;2022-08-18T03:20:45;34;32;
55485;PMS5003;49383;-25.924;28.194;2022-08-18T03:23:11;42;37;
55485;PMS5003;49383;-25.924;28.194;2022-08-18T03:28:02;77;61;
55485;PMS5003;49383;-25.924;28.194;2022-08-18T03:30:28;80;70;
55485;PMS5003;49383;-25.924;28.194;2022-08-18T03:32:53;41;40;
55485;PMS5003;49383;-25.924;28.194;2022-08-18T03:35:19;44;39;
55485;PMS5003;49383;-25.924;28.194;2022-08-18T03:37:44;39;39;
55485;PMS5003;49383;-25.924;28.194;2022-08-18T03:40:11;40;39;
55485;PMS5003;49383;-25.924;28.194;2022-08-18T03:42:36;34;32;
55485;PMS5003;49383;-25.924;28.194;2022-08-18T03:45:01;32;30;
55485;PMS5003;49383;-25.924;28.194;2022-08-18T03:47:27;39;34;
55485;PMS5003;49383;-25.924;28.194;2022-08-18T03:49:52;35;32;
55485;PMS5003;49383;-25.924;28.194;2022-08-18T03:52:18;33;32;
55485;PMS5003;49383;-25.924;28.194;2022-08-18T03:54:43;38;35;
55485;PMS5003;49383;-25.924;28.194;2022-08-18T03:57:09;33;29;
55485;PMS5003;49383;-25.924;28.194;2022-08-18T03:59:34;38;36;
55485;PMS5003;49383;-25.924;28.194;2022-08-18T04:02:01;31;31;
55485;PMS5003;49383;-25.924;28.194;2022-08-18T04:04:26;36;32;
55485;PMS5003;49383;-25.924;28.194;2022-08-18T04:06:51;32;31;
55485;PMS5003;49383;-25.924;28.194;2022-08-18T04:09:16;33;32;
55485;PMS5003;49383;-25.924;28.194;2022-08-18T04:11:41;31;30;
55485;PMS5003;49383;-25.924;28.194;2022-08-18T04:14:06;28;27;
55485;PMS5003;49383;-25.924;28.194;2022-08-18T04:16:32;30;29;
55485;PMS5003;49383;-25.924;28.194;2022-08-18T04:18:57;29;28;
55485;PMS5003;49383;-25.924;28.194;2022-08-18T04:21:23;27;27;
55485;PMS5003;49383;-25.924;28.194;2022-08-18T04:23:48;28;26;
55485;PMS5003;49383;-25.924;28.194;2022-08-18T04:26:14;32;29;
55485;PMS5003;49383;-25.924;28.194;2022-08-18T04:28:39;29;27;
55485;PMS5003;49383;-25.924;28.194;2022-08-18T04:31:05;31;28;
55485;PMS5003;49383;-25.924;28.194;2022-08-18T04:33:30;27;27;
55485;PMS5003;49383;-25.924;28.194;2022-08-18T04:35:56;25;25;
55485;PMS5003;49383;-25.924;28.194;2022-08-18T04:38:21;26;26;
55485;PMS5003;49383;-25.924;28.194;2022-08-18T04:40:46;28;27;
55485;PMS5003;49383;-25.924;28.194;2022-08-18T04:43:12;34;30;
55485;PMS5003;49383;-25.924;28.194;2022-08-18T04:45:38;43;39;
55485;PMS5003;49383;-25.924;28.194;2022-08-18T04:48:03;38;37;
55485;PMS5003;49383;-25.924;28.194;2022-08-18T04:50:28;33;33;
55485;PMS5003;49383;-25.924;28.194;2022-08-18T04:52:53;36;35;
55485;PMS5003;49383;-25.924;28.194;2022-08-18T04:55:19;44;39;
55485;PMS5003;49383;-25.924;28.194;2022-08-18T04:57:44;39;37;
55485;PMS5003;49383;-25.924;28.194;2022-08-18T05:00:10;42;37;
55485;PMS5003;49383;-25.924;28.194;2022-08-18T05:02:36;40;37;
55485;PMS5003;49383;-25.924;28.194;2022-08-18T05:05:01;44;37;
55485;PMS5003;49383;-25.924;28.194;2022-08-18T05:07:27;41;38;
55485;PMS5003;49383;-25.924;28.194;2022-08-18T05:09:52;40;39;
55485;PMS5003;49383;-25.924;28.194;2022-08-18T05:12:18;42;38;
55485;PMS5003;49383;-25.924;28.194;2022-08-18T05:14:43;36;36;
55485;PMS5003;49383;-25.924;28.194;2022-08-18T05:17:09;45;38;
55485;PMS5003;49383;-25.924;28.194;2022-08-18T05:19:34;42;41;
55485;PMS5003;49383;-25.924;28.194;2022-08-18T05:21:59;36;35;
55485;PMS5003;49383;-25.924;28.194;2022-08-18T05:24:25;41;36;
55485;PMS5003;49383;-25.924;28.194;2022-08-18T05:26:50;40;38;
55485;PMS5003;49383;-25.924;28.194;2022-08-18T05:29:16;43;40;
55485;PMS5003;49383;-25.924;28.194;2022-08-18T05:31:41;38;36;
55485;PMS5003;49383;-25.924;28.194;2022-08-18T05:34:07;41;37;
55485;PMS5003;49383;-25.924;28.194;2022-08-18T05:36:38;39;39;
55485;PMS5003;49383;-25.924;28.194;2022-08-18T05:38:57;48;43;
55485;PMS5003;49383;-25.924;28.194;2022-08-18T05:41:24;40;40;
55485;PMS5003;49383;-25.924;28.194;2022-08-18T05:43:48;38;35;
55485;PMS5003;49383;-25.924;28.194;2022-08-18T05:46:13;39;36;
55485;PMS5003;49383;-25.924;28.194;2022-08-18T05:48:39;39;37;
55485;PMS5003;49383;-25.924;28.194;2022-08-18T05:51:09;38;35;
55485;PMS5003;49383;-25.924;28.194;2022-08-18T05:53:30;39;38;
55485;PMS5003;49383;-25.924;28.194;2022-08-18T05:55:57;52;40;
55485;PMS5003;49383;-25.924;28.194;2022-08-18T05:58:22;47;40;
55485;PMS5003;49383;-25.924;28.194;2022-08-18T06:00:48;44;40;
55485;PMS5003;49383;-25.924;28.194;2022-08-18T06:03:12;45;39;
55485;PMS5003;49383;-25.924;28.194;2022-08-18T06:05:40;43;38;
55485;PMS5003;49383;-25.924;28.194;2022-08-18T06:08:04;40;37;
55485;PMS5003;49383;-25.924;28.194;2022-08-18T06:10:29;38;36;
55485;PMS5003;49383;-25.924;28.194;2022-08-18T06:12:56;39;33;
55485;PMS5003;49383;-25.924;28.194;2022-08-18T06:15:22;48;38;
55485;PMS5003;49383;-25.924;28.194;2022-08-18T06:17:48;34;33;
55485;PMS5003;49383;-25.924;28.194;2022-08-18T06:20:12;37;36;
55485;PMS5003;49383;-25.924;28.194;2022-08-18T06:22:38;40;37;
55485;PMS5003;49383;-25.924;28.194;2022-08-18T06:25:06;33;31;
55485;PMS5003;49383;-25.924;28.194;2022-08-18T06:27:29;36;32;
55485;PMS5003;49383;-25.924;28.194;2022-08-18T06:29:56;27;27;
55485;PMS5003;49383;-25.924;28.194;2022-08-18T06:32:21;37;33;
55485;PMS5003;49383;-25.924;28.194;2022-08-18T06:34:47;33;32;
55485;PMS5003;49383;-25.924;28.194;2022-08-18T06:37:10;38;36;
55485;PMS5003;49383;-25.924;28.194;2022-08-18T06:39:35;28;27;
55485;PMS5003;49383;-25.924;28.194;2022-08-18T06:41:59;34;31;
55485;PMS5003;49383;-25.924;28.194;2022-08-18T06:44:28;28;27;
55485;PMS5003;49383;-25.924;28.194;2022-08-18T06:46:52;35;33;
55485;PMS5003;49383;-25.924;28.194;2022-08-18T06:49:27;27;26;
55485;PMS5003;49383;-25.924;28.194;2022-08-18T06:51:42;24;23;
55485;PMS5003;49383;-25.924;28.194;2022-08-18T06:56:35;23;23;
55485;PMS5003;49383;-25.924;28.194;2022-08-18T07:01:24;29;25;
55485;PMS5003;49383;-25.924;28.194;2022-08-18T07:03:51;28;23;
55485;PMS5003;49383;-25.924;28.194;2022-08-18T07:08:41;25;23;
55485;PMS5003;49383;-25.924;28.194;2022-08-18T07:11:11;24;23;
55485;PMS5003;49383;-25.924;28.194;2022-08-18T07:13:36;21;19;
55485;PMS5003;49383;-25.924;28.194;2022-08-18T07:16:15;24;23;
55485;PMS5003;49383;-25.924;28.194;2022-08-18T07:18:25;29;24;
55485;PMS5003;49383;-25.924;28.194;2022-08-18T07:20:48;34;30;
55485;PMS5003;49383;-25.924;28.194;2022-08-18T07:25:39;58;47;
55485;PMS5003;49383;-25.924;28.194;2022-08-18T07:28:04;64;47;
55485;PMS5003;49383;-25.924;28.194;2022-08-18T07:30:31;58;54;
55485;PMS5003;49383;-25.924;28.194;2022-08-18T07:32:57;48;40;
55485;PMS5003;49383;-25.924;28.194;2022-08-18T07:35:21;49;39;
55485;PMS5003;49383;-25.924;28.194;2022-08-18T07:37:47;54;39;
55485;PMS5003;49383;-25.924;28.194;2022-08-18T07:40:15;46;39;
55485;PMS5003;49383;-25.924;28.194;2022-08-18T07:42:38;45;35;
55485;PMS5003;49383;-25.924;28.194;2022-08-18T07:45:03;36;34;
55485;PMS5003;49383;-25.924;28.194;2022-08-18T07:47:29;38;32;
55485;PMS5003;49383;-25.924;28.194;2022-08-18T07:49:53;33;29;
55485;PMS5003;49383;-25.924;28.194;2022-08-18T07:52:20;35;32;
55485;PMS5003;49383;-25.924;28.194;2022-08-18T07:54:46;37;31;
55485;PMS5003;49383;-25.924;28.194;2022-08-18T07:57:10;32;28;
55485;PMS5003;49383;-25.924;28.194;2022-08-18T07:59:34;35;27;
55485;PMS5003;49383;-25.924;28.194;2022-08-18T08:02:02;32;28;
55485;PMS5003;49383;-25.924;28.194;2022-08-18T08:04:26;32;30;
55485;PMS5003;49383;-25.924;28.194;2022-08-18T08:06:52;31;29;
55485;PMS5003;49383;-25.924;28.194;2022-08-18T08:09:18;31;29;
55485;PMS5003;49383;-25.924;28.194;2022-08-18T08:11:44;36;32;
55485;PMS5003;49383;-25.924;28.194;2022-08-18T08:14:10;30;29;
55485;PMS5003;49383;-25.924;28.194;2022-08-18T08:16:35;36;33;
55485;PMS5003;49383;-25.924;28.194;2022-08-18T08:18:58;30;28;
55485;PMS5003;49383;-25.924;28.194;2022-08-18T08:21:23;29;29;
55485;PMS5003;49383;-25.924;28.194;2022-08-18T08:23:49;30;27;
55485;PMS5003;49383;-25.924;28.194;2022-08-18T08:28:40;31;29;
55485;PMS5003;49383;-25.924;28.194;2022-08-18T08:31:07;35;31;
55485;PMS5003;49383;-25.924;28.194;2022-08-18T08:33:30;38;36;
55485;PMS5003;49383;-25.924;28.194;2022-08-18T08:35:57;31;28;
55485;PMS5003;49383;-25.924;28.194;2022-08-18T08:38:22;35;32;
55485;PMS5003;49383;-25.924;28.194;2022-08-18T08:40:48;42;33;
55485;PMS5003;49383;-25.924;28.194;2022-08-18T08:43:12;30;29;
55485;PMS5003;49383;-25.924;28.194;2022-08-18T08:45:38;34;32;
55485;PMS5003;49383;-25.924;28.194;2022-08-18T08:48:04;40;37;
55485;PMS5003;49383;-25.924;28.194;2022-08-18T08:50:29;36;36;
55485;PMS5003;49383;-25.924;28.194;2022-08-18T08:52:54;35;34;
55485;PMS5003;49383;-25.924;28.194;2022-08-18T08:55:20;34;33;
55485;PMS5003;49383;-25.924;28.194;2022-08-18T08:57:46;41;35;
55485;PMS5003;49383;-25.924;28.194;2022-08-18T09:00:09;40;35;
55485;PMS5003;49383;-25.924;28.194;2022-08-18T09:05:03;44;39;
55485;PMS5003;49383;-25.924;28.194;2022-08-18T09:07:30;39;35;
55485;PMS5003;49383;-25.924;28.194;2022-08-18T09:09:57;38;35;
55485;PMS5003;49383;-25.924;28.194;2022-08-18T09:12:21;47;41;
55485;PMS5003;49383;-25.924;28.194;2022-08-18T09:14:50;36;34;
55485;PMS5003;49383;-25.924;28.194;2022-08-18T09:17:12;42;40;
55485;PMS5003;49383;-25.924;28.194;2022-08-18T09:21:59;59;53;
55485;PMS5003;49383;-25.924;28.194;2022-08-18T09:24:24;38;35;
55485;PMS5003;49383;-25.924;28.194;2022-08-18T09:26:50;59;56;
55485;PMS5003;49383;-25.924;28.194;2022-08-18T09:29:16;42;39;
55485;PMS5003;49383;-25.924;28.194;2022-08-18T09:31:39;42;41;
55485;PMS5003;49383;-25.924;28.194;2022-08-18T09:34:11;45;44;
55485;PMS5003;49383;-25.924;28.194;2022-08-18T09:36:33;39;37;
55485;PMS5003;49383;-25.924;28.194;2022-08-18T09:38:58;39;38;
55485;PMS5003;49383;-25.924;28.194;2022-08-18T09:41:22;42;40;
55485;PMS5003;49383;-25.924;28.194;2022-08-18T09:46:12;45;41;
55485;PMS5003;49383;-25.924;28.194;2022-08-18T09:48:38;40;37;
55485;PMS5003;49383;-25.924;28.194;2022-08-18T09:53:34;48;46;
55485;PMS5003;49383;-25.924;28.194;2022-08-18T09:55:55;44;42;
55485;PMS5003;49383;-25.924;28.194;2022-08-18T09:58:25;41;39;
55485;PMS5003;49383;-25.924;28.194;2022-08-18T10:00:45;59;58;
55485;PMS5003;49383;-25.924;28.194;2022-08-18T10:03:13;43;43;
55485;PMS5003;49383;-25.924;28.194;2022-08-18T10:05:35;47;46;
55485;PMS5003;49383;-25.924;28.194;2022-08-18T10:10:27;44;38;
55485;PMS5003;49383;-25.924;28.194;2022-08-18T10:12:57;40;39;
55485;PMS5003;49383;-25.924;28.194;2022-08-18T10:15:21;45;45;
55485;PMS5003;49383;-25.924;28.194;2022-08-18T10:17:46;49;47;
55485;PMS5003;49383;-25.924;28.194;2022-08-18T10:20:13;40;37;
55485;PMS5003;49383;-25.924;28.194;2022-08-18T10:22:36;38;36;
55485;PMS5003;49383;-25.924;28.194;2022-08-18T10:24:59;37;35;
55485;PMS5003;49383;-25.924;28.194;2022-08-18T10:29:51;44;40;
55485;PMS5003;49383;-25.924;28.194;2022-08-18T10:32:20;46;40;
55485;PMS5003;49383;-25.924;28.194;2022-08-18T10:34:41;42;39;
55485;PMS5003;49383;-25.924;28.194;2022-08-18T10:37:10;47;41;
55485;PMS5003;49383;-25.924;28.194;2022-08-18T10:42:01;37;34;
55485;PMS5003;49383;-25.924;28.194;2022-08-18T10:44:22;37;33;
55485;PMS5003;49383;-25.924;28.194;2022-08-18T10:46:49;44;39;
55485;PMS5003;49383;-25.924;28.194;2022-08-18T10:49:16;36;36;
55485;PMS5003;49383;-25.924;28.194;2022-08-18T10:51:43;35;35;
55485;PMS5003;49383;-25.924;28.194;2022-08-18T10:54:05;40;37;
55485;PMS5003;49383;-25.924;28.194;2022-08-18T10:56:31;38;36;
55485;PMS5003;49383;-25.924;28.194;2022-08-18T10:59:00;35;34;
55485;PMS5003;49383;-25.924;28.194;2022-08-18T11:01:26;36;36;
55485;PMS5003;49383;-25.924;28.194;2022-08-18T11:06:16;42;36;
55485;PMS5003;49383;-25.924;28.194;2022-08-18T11:08:41;36;34;
55485;PMS5003;49383;-25.924;28.194;2022-08-18T11:11:05;36;34;
55485;PMS5003;49383;-25.924;28.194;2022-08-18T11:13:29;42;34;
55485;PMS5003;49383;-25.924;28.194;2022-08-18T11:15:56;40;39;
55485;PMS5003;49383;-25.924;28.194;2022-08-18T11:18:23;39;35;
55485;PMS5003;49383;-25.924;28.194;2022-08-18T11:20:45;37;36;
55485;PMS5003;49383;-25.924;28.194;2022-08-18T11:23:11;38;36;
55485;PMS5003;49383;-25.924;28.194;2022-08-18T11:25:35;39;38;
55485;PMS5003;49383;-25.924;28.194;2022-08-18T11:28:01;34;34;
55485;PMS5003;49383;-25.924;28.194;2022-08-18T11:30:27;33;32;
55485;PMS5003;49383;-25.924;28.194;2022-08-18T11:32:51;34;33;
55485;PMS5003;49383;-25.924;28.194;2022-08-18T11:35:18;36;34;
55485;PMS5003;49383;-25.924;28.194;2022-08-18T11:37:44;33;33;
55485;PMS5003;49383;-25.924;28.194;2022-08-18T11:40:09;33;33;
55485;PMS5003;49383;-25.924;28.194;2022-08-18T11:42:36;34;32;
55485;PMS5003;49383;-25.924;28.194;2022-08-18T11:45:03;36;32;
55485;PMS5003;49383;-25.924;28.194;2022-08-18T11:47:24;34;33;
55485;PMS5003;49383;-25.924;28.194;2022-08-18T11:49:53;35;35;
55485;PMS5003;49383;-25.924;28.194;2022-08-18T11:52:17;31;31;
55485;PMS5003;49383;-25.924;28.194;2022-08-18T11:54:42;31;31;
55485;PMS5003;49383;-25.924;28.194;2022-08-18T11:59:32;31;31;
55485;PMS5003;49383;-25.924;28.194;2022-08-18T12:01:57;33;30;
55485;PMS5003;49383;-25.924;28.194;2022-08-18T12:04:25;37;33;
55485;PMS5003;49383;-25.924;28.194;2022-08-18T12:06:52;38;35;
55485;PMS5003;49383;-25.924;28.194;2022-08-18T12:09:14;30;30;
55485;PMS5003;49383;-25.924;28.194;2022-08-18T12:11:48;34;34;
55485;PMS5003;49383;-25.924;28.194;2022-08-18T12:14:06;34;33;
55485;PMS5003;49383;-25.924;28.194;2022-08-18T12:16:31;40;37;
55485;PMS5003;49383;-25.924;28.194;2022-08-18T12:18:55;43;39;
55485;PMS5003;49383;-25.924;28.194;2022-08-18T12:21:21;42;37;
55485;PMS5003;49383;-25.924;28.194;2022-08-18T12:23:47;51;49;
55485;PMS5003;49383;-25.924;28.194;2022-08-18T12:26:12;62;57;
55485;PMS5003;49383;-25.924;28.194;2022-08-18T12:28:38;92;85;
55485;PMS5003;49383;-25.924;28.194;2022-08-18T12:31:03;131;120;
55485;PMS5003;49383;-25.924;28.194;2022-08-18T12:33:28;139;136;
55485;PMS5003;49383;-25.924;28.194;2022-08-18T12:35:53;170;165;
55485;PMS5003;49383;-25.924;28.194;2022-08-18T12:38:19;189;185;
55485;PMS5003;49383;-25.924;28.194;2022-08-18T12:40:44;210;201;
55485;PMS5003;49383;-25.924;28.194;2022-08-18T12:43:10;200;194;
55485;PMS5003;49383;-25.924;28.194;2022-08-18T12:45:35;204;194;
55485;PMS5003;49383;-25.924;28.194;2022-08-18T12:48:00;197;187;
55485;PMS5003;49383;-25.924;28.194;2022-08-18T12:50:26;195;182;
55485;PMS5003;49383;-25.924;28.194;2022-08-18T12:52:51;196;184;
55485;PMS5003;49383;-25.924;28.194;2022-08-18T12:55:16;179;174;
55485;PMS5003;49383;-25.924;28.194;2022-08-18T12:57:42;193;183;
55485;PMS5003;49383;-25.924;28.194;2022-08-18T13:00:08;180;174;
55485;PMS5003;49383;-25.924;28.194;2022-08-18T13:02:33;183;173;
55485;PMS5003;49383;-25.924;28.194;2022-08-18T13:04:58;173;166;
55485;PMS5003;49383;-25.924;28.194;2022-08-18T13:07:23;157;150;
55485;PMS5003;49383;-25.924;28.194;2022-08-18T13:09:49;158;155;
55485;PMS5003;49383;-25.924;28.194;2022-08-18T13:12:14;150;143;
55485;PMS5003;49383;-25.924;28.194;2022-08-18T13:14:40;152;140;
55485;PMS5003;49383;-25.924;28.194;2022-08-18T13:17:05;148;142;
55485;PMS5003;49383;-25.924;28.194;2022-08-18T13:19:31;144;132;
55485;PMS5003;49383;-25.924;28.194;2022-08-18T13:21:56;125;122;
55485;PMS5003;49383;-25.924;28.194;2022-08-18T13:24:21;130;122;
55485;PMS5003;49383;-25.924;28.194;2022-08-18T13:26:46;126;116;
55485;PMS5003;49383;-25.924;28.194;2022-08-18T13:29:12;113;107;
55485;PMS5003;49383;-25.924;28.194;2022-08-18T13:31:37;108;103;
55485;PMS5003;49383;-25.924;28.194;2022-08-18T13:34:03;113;105;
55485;PMS5003;49383;-25.924;28.194;2022-08-18T13:36:29;105;94;
55485;PMS5003;49383;-25.924;28.194;2022-08-18T13:38:54;109;100;
55485;PMS5003;49383;-25.924;28.194;2022-08-18T13:41:20;98;95;
55485;PMS5003;49383;-25.924;28.194;2022-08-18T13:43:45;93;89;
55485;PMS5003;49383;-25.924;28.194;2022-08-18T13:46:12;89;81;
55485;PMS5003;49383;-25.924;28.194;2022-08-18T13:48:36;84;80;
55485;PMS5003;49383;-25.924;28.194;2022-08-18T13:51:01;87;81;
55485;PMS5003;49383;-25.924;28.194;2022-08-18T13:53:27;84;75;
55485;PMS5003;49383;-25.924;28.194;2022-08-18T13:55:52;75;69;
55485;PMS5003;49383;-25.924;28.194;2022-08-18T13:58:18;80;68;
55485;PMS5003;49383;-25.924;28.194;2022-08-18T14:00:43;75;73;
55485;PMS5003;49383;-25.924;28.194;2022-08-18T14:03:10;87;80;
55485;PMS5003;49383;-25.924;28.194;2022-08-18T14:05:34;82;76;
55485;PMS5003;49383;-25.924;28.194;2022-08-18T14:08:00;82;76;
55485;PMS5003;49383;-25.924;28.194;2022-08-18T14:10:26;73;68;
55485;PMS5003;49383;-25.924;28.194;2022-08-18T14:12:51;72;70;
55485;PMS5003;49383;-25.924;28.194;2022-08-18T14:15:16;72;63;
55485;PMS5003;49383;-25.924;28.194;2022-08-18T14:17:42;64;59;
55485;PMS5003;49383;-25.924;28.194;2022-08-18T14:20:07;58;55;
55485;PMS5003;49383;-25.924;28.194;2022-08-18T14:22:32;59;53;
55485;PMS5003;49383;-25.924;28.194;2022-08-18T14:24:58;62;57;
55485;PMS5003;49383;-25.924;28.194;2022-08-18T14:27:24;51;46;
55485;PMS5003;49383;-25.924;28.194;2022-08-18T14:29:49;47;46;
55485;PMS5003;49383;-25.924;28.194;2022-08-18T14:32:15;53;50;
55485;PMS5003;49383;-25.924;28.194;2022-08-18T14:34:40;40;40;
55485;PMS5003;49383;-25.924;28.194;2022-08-18T14:37:05;41;41;
55485;PMS5003;49383;-25.924;28.194;2022-08-18T14:39:30;45;41;
55485;PMS5003;49383;-25.924;28.194;2022-08-18T14:41:55;42;41;
55485;PMS5003;49383;-25.924;28.194;2022-08-18T14:44:21;43;40;
55485;PMS5003;49383;-25.924;28.194;2022-08-18T14:46:47;39;38;
55485;PMS5003;49383;-25.924;28.194;2022-08-18T14:49:13;39;37;
55485;PMS5003;49383;-25.924;28.194;2022-08-18T14:51:38;43;42;
55485;PMS5003;49383;-25.924;28.194;2022-08-18T14:54:04;36;36;
55485;PMS5003;49383;-25.924;28.194;2022-08-18T14:56:29;41;38;
55485;PMS5003;49383;-25.924;28.194;2022-08-18T14:58:54;39;34;
55485;PMS5003;49383;-25.924;28.194;2022-08-18T15:01:20;36;35;
55485;PMS5003;49383;-25.924;28.194;2022-08-18T15:03:46;44;39;
55485;PMS5003;49383;-25.924;28.194;2022-08-18T15:06:11;36;33;
55485;PMS5003;49383;-25.924;28.194;2022-08-18T15:08:36;39;35;
55485;PMS5003;49383;-25.924;28.194;2022-08-18T15:11:02;35;34;
55485;PMS5003;49383;-25.924;28.194;2022-08-18T15:13:27;35;34;
55485;PMS5003;49383;-25.924;28.194;2022-08-18T15:15:53;36;36;
55485;PMS5003;49383;-25.924;28.194;2022-08-18T15:18:18;34;33;
55485;PMS5003;49383;-25.924;28.194;2022-08-18T15:20:44;36;34;
55485;PMS5003;49383;-25.924;28.194;2022-08-18T15:23:09;33;31;
55485;PMS5003;49383;-25.924;28.194;2022-08-18T15:25:34;31;30;
55485;PMS5003;49383;-25.924;28.194;2022-08-18T15:28:00;33;31;
55485;PMS5003;49383;-25.924;28.194;2022-08-18T15:30:25;37;34;
55485;PMS5003;49383;-25.924;28.194;2022-08-18T15:32:51;33;33;
55485;PMS5003;49383;-25.924;28.194;2022-08-18T15:35:17;37;34;
55485;PMS5003;49383;-25.924;28.194;2022-08-18T15:37:42;34;31;
55485;PMS5003;49383;-25.924;28.194;2022-08-18T15:40:08;33;32;
55485;PMS5003;49383;-25.924;28.194;2022-08-18T15:42:32;38;30;
55485;PMS5003;49383;-25.924;28.194;2022-08-18T15:44:59;29;28;
55485;PMS5003;49383;-25.924;28.194;2022-08-18T15:47:23;31;30;
55485;PMS5003;49383;-25.924;28.194;2022-08-18T15:49:48;30;28;
55485;PMS5003;49383;-25.924;28.194;2022-08-18T15:52:13;30;30;
55485;PMS5003;49383;-25.924;28.194;2022-08-18T15:54:38;24;24;
55485;PMS5003;49383;-25.924;28.194;2022-08-18T15:57:04;28;24;
55485;PMS5003;49383;-25.924;28.194;2022-08-18T15:59:29;28;27;
55485;PMS5003;49383;-25.924;28.194;2022-08-18T16:01:55;27;25;
55485;PMS5003;49383;-25.924;28.194;2022-08-18T16:04:20;25;24;
55485;PMS5003;49383;-25.924;28.194;2022-08-18T16:06:47;25;23;
55485;PMS5003;49383;-25.924;28.194;2022-08-18T16:09:11;24;23;